createdAt,value
2022-11-07T00:00:47.497Z,100664.34
2022-11-07T00:07:51.395Z,100653.59
2022-11-07T00:14:52.989Z,100657.69
2022-11-07T00:21:54.521Z,100656.66
2022-11-07T00:28:56.321Z,100645.03
2022-11-07T00:35:57.941Z,100650.56
2022-11-07T00:42:59.502Z,100652.06
2022-11-07T00:50:01.077Z,100641.56
2022-11-07T00:57:02.694Z,100642.56
2022-11-07T01:04:22.833Z,100613.91
2022-11-07T01:11:25.042Z,100618.09
2022-11-07T01:18:26.658Z,100632.50
2022-11-07T01:25:28.211Z,100635.88
2022-11-07T01:32:29.792Z,100641.94
2022-11-07T01:39:31.401Z,100626.66
2022-11-07T01:46:39.006Z,100620.56
2022-11-07T01:53:40.770Z,100620.03
2022-11-07T02:00:42.317Z,100635.19
2022-11-07T02:07:43.945Z,100628.47
2022-11-07T02:14:45.610Z,100614.00
2022-11-07T02:21:50.743Z,100610.22
2022-11-07T02:28:52.612Z,100611.81
2022-11-07T02:35:54.178Z,100611.94
2022-11-07T02:42:55.890Z,100611.00
2022-11-07T02:49:57.462Z,100618.50
2022-11-07T02:56:59.034Z,100621.25
2022-11-07T03:04:00.572Z,100616.44
2022-11-07T03:11:02.462Z,100617.84
2022-11-07T03:18:04.135Z,100614.84
2022-11-07T03:25:06.631Z,100632.41
2022-11-07T03:32:08.283Z,100643.38
2022-11-07T03:39:09.835Z,100649.44
2022-11-07T03:46:15.106Z,100651.81
2022-11-07T03:53:22.179Z,100665.88
2022-11-07T04:00:25.515Z,100670.91
2022-11-07T04:07:27.107Z,100660.97
2022-11-07T04:14:46.971Z,100669.38
2022-11-07T04:21:48.574Z,100658.38
2022-11-07T04:28:50.122Z,100658.84
2022-11-07T04:35:51.726Z,100665.00
2022-11-07T04:42:53.683Z,100672.53
2022-11-07T04:49:55.264Z,100681.66
2022-11-07T04:56:56.882Z,100682.97
2022-11-07T05:03:58.566Z,100685.66
2022-11-07T05:11:00.127Z,100695.56
2022-11-07T05:18:01.743Z,100702.53
2022-11-07T05:25:03.309Z,100701.50
2022-11-07T05:32:05.138Z,100704.06
2022-11-07T05:39:06.718Z,100707.56
2022-11-07T05:46:11.010Z,100717.38
2022-11-07T05:53:12.916Z,100719.56
2022-11-07T06:00:15.091Z,100736.47
2022-11-07T06:07:16.613Z,100728.25
2022-11-07T06:14:18.238Z,100746.13
2022-11-07T06:21:19.790Z,100752.28
2022-11-07T06:28:21.368Z,100759.56
2022-11-07T06:35:22.902Z,100750.19
2022-11-07T06:42:25.921Z,100759.63
2022-11-07T06:49:27.532Z,100765.44
2022-11-07T06:56:29.090Z,100777.63
2022-11-07T07:03:30.720Z,100764.44
2022-11-07T07:10:35.839Z,100783.88
2022-11-07T07:17:37.475Z,100793.25
2022-11-07T07:24:39.175Z,100792.81
2022-11-07T07:31:41.838Z,100804.97
2022-11-07T07:38:43.545Z,100794.81
2022-11-07T07:45:45.113Z,100796.94
2022-11-07T07:52:46.733Z,100797.81
2022-11-07T07:59:48.348Z,100797.47
2022-11-07T08:06:49.914Z,100794.50
2022-11-07T08:13:51.486Z,100793.66
2022-11-07T08:20:54.134Z,100797.88
2022-11-07T08:27:55.694Z,100807.53
2022-11-07T08:34:57.268Z,100793.78
2022-11-07T08:41:58.850Z,100792.03
2022-11-07T08:49:00.414Z,100794.59
2022-11-07T08:56:06.369Z,100803.66
2022-11-07T09:10:29.996Z,100803.16
2022-11-07T09:17:31.591Z,100801.13
2022-11-07T09:24:33.183Z,100799.03
2022-11-07T09:31:34.740Z,100805.72
2022-11-07T09:38:36.310Z,100812.25
2022-11-07T09:45:44.474Z,100812.50
2022-11-07T09:52:52.761Z,100814.88
2022-11-07T10:00:26.515Z,100812.66
2022-11-07T10:08:11.528Z,100813.00
2022-11-07T10:15:27.110Z,100814.72
2022-11-07T10:23:00.674Z,100811.44
2022-11-07T10:30:02.267Z,100816.31
2022-11-07T10:37:04.217Z,100822.84
2022-11-07T10:44:09.764Z,100803.75
2022-11-07T10:51:11.385Z,100797.09
2022-11-07T10:58:18.935Z,100797.44
2022-11-07T11:05:26.767Z,100808.66
2022-11-07T11:12:34.566Z,100796.75
2022-11-07T11:19:41.117Z,100791.13
2022-11-07T11:26:43.909Z,100792.50
2022-11-07T11:33:48.465Z,100785.91
2022-11-07T11:41:03.260Z,100782.66
2022-11-07T11:48:30.978Z,100795.75
2022-11-07T11:55:37.821Z,100787.56
2022-11-07T12:03:11.763Z,100790.28
2022-11-07T12:10:34.251Z,100779.75
2022-11-07T12:18:01.783Z,100773.63
2022-11-07T12:25:12.482Z,100766.66
2022-11-07T12:33:04.632Z,100776.34
2022-11-07T12:40:08.899Z,100768.41
2022-11-07T12:47:32.340Z,100778.69
2022-11-07T12:54:44.526Z,100765.75
2022-11-07T13:02:09.831Z,100783.78
2022-11-07T13:09:33.154Z,100777.47
2022-11-07T13:16:35.610Z,100790.41
2022-11-07T13:23:37.236Z,100788.81
2022-11-07T13:30:39.971Z,100789.34
2022-11-07T13:37:41.613Z,100803.00
2022-11-07T13:44:43.202Z,100789.91
2022-11-07T13:51:46.876Z,100789.38
2022-11-07T13:58:49.603Z,100791.22
2022-11-07T14:05:51.252Z,100803.16
2022-11-07T14:12:55.472Z,100789.50
2022-11-07T14:20:14.176Z,100791.31
2022-11-07T14:27:15.790Z,100785.63
2022-11-07T14:34:18.585Z,100785.25
2022-11-07T14:41:20.359Z,100777.16
2022-11-07T14:48:27.425Z,100772.00
2022-11-07T14:55:31.689Z,100763.09
2022-11-07T15:02:33.423Z,100767.69
2022-11-07T15:09:35.622Z,100766.59
2022-11-07T15:16:38.955Z,100774.50
2022-11-07T15:23:40.564Z,100773.53
2022-11-07T15:30:42.921Z,100775.81
2022-11-07T15:38:00.620Z,100777.31
2022-11-07T15:45:02.240Z,100779.94
2022-11-07T15:52:03.867Z,100786.13
2022-11-07T15:59:05.895Z,100788.31
2022-11-07T16:06:15.055Z,100791.78
2022-11-07T16:13:16.714Z,100798.72
2022-11-07T16:20:20.034Z,100797.63
2022-11-07T16:27:21.649Z,100791.03
2022-11-07T16:34:23.258Z,100796.56
2022-11-07T16:41:24.899Z,100795.03
2022-11-07T16:48:27.717Z,100797.41
2022-11-07T16:55:29.355Z,100808.47
2022-11-07T17:02:31.093Z,100818.41
2022-11-07T17:09:32.785Z,100820.19
2022-11-07T17:16:36.542Z,100821.53
2022-11-07T17:23:38.146Z,100822.59
2022-11-07T17:30:39.707Z,100831.72
2022-11-07T17:37:41.255Z,100838.06
2022-11-07T17:44:42.873Z,100835.69
2022-11-07T17:51:44.739Z,100847.16
2022-11-07T17:58:47.042Z,100841.09
2022-11-07T18:05:51.658Z,100852.59
2022-11-07T18:12:53.224Z,100861.13
2022-11-07T18:19:54.802Z,100859.84
2022-11-07T18:26:56.400Z,100861.78
2022-11-07T18:34:02.239Z,100864.28
2022-11-07T18:41:05.802Z,100865.59
2022-11-07T18:48:07.403Z,100867.66
2022-11-07T18:55:09.601Z,100866.22
2022-11-07T19:02:12.142Z,100864.06
2022-11-07T19:09:13.741Z,100869.06
2022-11-07T19:16:16.552Z,100869.44
2022-11-07T19:23:18.400Z,100874.44
2022-11-07T19:30:20.201Z,100874.06
2022-11-07T19:37:21.757Z,100880.31
2022-11-07T19:44:23.363Z,100879.81
2022-11-07T19:51:24.929Z,100878.19
2022-11-07T19:58:26.498Z,100875.47
2022-11-07T20:05:34.063Z,100884.34
2022-11-07T20:12:35.685Z,100888.78
2022-11-07T20:19:37.975Z,100890.72
2022-11-07T20:26:39.818Z,100889.00
2022-11-07T20:33:41.467Z,100895.91
2022-11-07T20:40:43.040Z,100900.91
2022-11-07T20:47:44.807Z,100908.13
2022-11-07T20:54:46.417Z,100907.25
2022-11-07T21:01:50.835Z,100918.06
2022-11-07T21:08:52.450Z,100918.97
2022-11-07T21:15:54.038Z,100924.13
2022-11-07T21:22:55.622Z,100924.13
2022-11-07T21:29:57.246Z,100923.06
2022-11-07T21:36:58.851Z,100909.81
2022-11-07T21:44:00.418Z,100913.03
2022-11-07T21:51:10.108Z,100918.34
2022-11-07T21:58:11.679Z,100919.59
2022-11-07T22:05:15.284Z,100917.88
2022-11-07T22:12:16.846Z,100922.63
2022-11-07T22:19:18.556Z,100911.47
2022-11-07T22:26:22.147Z,100920.56
2022-11-07T22:33:23.751Z,100925.41
2022-11-07T22:40:25.318Z,100913.84
2022-11-07T22:47:26.967Z,100926.13
2022-11-07T22:54:28.576Z,100918.28
2022-11-07T23:01:32.181Z,100912.69
2022-11-07T23:08:33.857Z,100907.88
2022-11-07T23:15:35.467Z,100913.47
2022-11-07T23:22:37.036Z,100922.16
2022-11-07T23:29:38.588Z,100909.25
2022-11-07T23:36:46.392Z,100912.31
2022-11-07T23:43:52.204Z,100913.59
2022-11-07T23:51:02.848Z,100908.28
2022-11-07T23:58:30.578Z,100901.50
